sensor_id;sensor_type;location;lat;lon;timestamp;P1;durP1;ratioP1;P2;durP2;ratioP2
23280;SDS011;11809;56.390;-3.266;2022-11-15T00:01:07;17.73;;;11.32;;
23280;SDS011;11809;56.390;-3.266;2022-11-15T00:03:35;15.68;;;11.10;;
23280;SDS011;11809;56.390;-3.266;2022-11-15T00:06:03;13.60;;;10.55;;
23280;SDS011;11809;56.390;-3.266;2022-11-15T00:08:31;14.85;;;11.15;;
23280;SDS011;11809;56.390;-3.266;2022-11-15T00:10:59;16.17;;;11.48;;
23280;SDS011;11809;56.390;-3.266;2022-11-15T00:13:27;15.57;;;11.77;;
23280;SDS011;11809;56.390;-3.266;2022-11-15T00:15:56;14.07;;;10.98;;
23280;SDS011;11809;56.390;-3.266;2022-11-15T00:18:25;15.57;;;11.20;;
23280;SDS011;11809;56.390;-3.266;2022-11-15T00:20:52;14.32;;;10.68;;
23280;SDS011;11809;56.390;-3.266;2022-11-15T00:23:19;16.00;;;11.25;;
23280;SDS011;11809;56.390;-3.266;2022-11-15T00:25:46;15.70;;;10.85;;
23280;SDS011;11809;56.390;-3.266;2022-11-15T00:28:13;15.55;;;11.23;;
23280;SDS011;11809;56.390;-3.266;2022-11-15T00:30:40;14.00;;;10.18;;
23280;SDS011;11809;56.390;-3.266;2022-11-15T00:33:08;14.75;;;11.00;;
23280;SDS011;11809;56.390;-3.266;2022-11-15T00:35:35;14.65;;;10.52;;
23280;SDS011;11809;56.390;-3.266;2022-11-15T00:38:02;17.05;;;11.73;;
23280;SDS011;11809;56.390;-3.266;2022-11-15T00:40:29;16.13;;;10.65;;
23280;SDS011;11809;56.390;-3.266;2022-11-15T00:42:56;14.30;;;11.00;;
23280;SDS011;11809;56.390;-3.266;2022-11-15T00:45:23;13.60;;;10.40;;
23280;SDS011;11809;56.390;-3.266;2022-11-15T00:47:51;14.80;;;10.38;;
23280;SDS011;11809;56.390;-3.266;2022-11-15T00:50:18;13.20;;;9.95;;
23280;SDS011;11809;56.390;-3.266;2022-11-15T00:52:45;14.07;;;10.05;;
23280;SDS011;11809;56.390;-3.266;2022-11-15T00:55:13;14.10;;;10.20;;
23280;SDS011;11809;56.390;-3.266;2022-11-15T00:57:41;14.23;;;10.45;;
23280;SDS011;11809;56.390;-3.266;2022-11-15T01:00:08;13.38;;;10.07;;
23280;SDS011;11809;56.390;-3.266;2022-11-15T01:02:36;14.95;;;10.85;;
23280;SDS011;11809;56.390;-3.266;2022-11-15T01:05:03;14.80;;;10.15;;
23280;SDS011;11809;56.390;-3.266;2022-11-15T01:07:30;13.25;;;9.75;;
23280;SDS011;11809;56.390;-3.266;2022-11-15T01:09:57;13.25;;;10.13;;
23280;SDS011;11809;56.390;-3.266;2022-11-15T01:12:24;12.55;;;9.57;;
23280;SDS011;11809;56.390;-3.266;2022-11-15T01:14:51;12.20;;;8.93;;
23280;SDS011;11809;56.390;-3.266;2022-11-15T01:17:18;11.50;;;9.00;;
23280;SDS011;11809;56.390;-3.266;2022-11-15T01:19:46;11.05;;;8.80;;
23280;SDS011;11809;56.390;-3.266;2022-11-15T01:22:12;12.18;;;9.52;;
23280;SDS011;11809;56.390;-3.266;2022-11-15T01:24:39;12.40;;;9.25;;
23280;SDS011;11809;56.390;-3.266;2022-11-15T01:27:06;12.25;;;8.80;;
23280;SDS011;11809;56.390;-3.266;2022-11-15T01:29:33;12.40;;;9.18;;
23280;SDS011;11809;56.390;-3.266;2022-11-15T01:32:00;10.77;;;8.27;;
23280;SDS011;11809;56.390;-3.266;2022-11-15T01:34:27;12.32;;;8.88;;
23280;SDS011;11809;56.390;-3.266;2022-11-15T01:36:54;10.15;;;8.05;;
23280;SDS011;11809;56.390;-3.266;2022-11-15T01:39:21;10.63;;;8.20;;
23280;SDS011;11809;56.390;-3.266;2022-11-15T01:41:48;9.77;;;7.80;;
23280;SDS011;11809;56.390;-3.266;2022-11-15T01:46:57;10.18;;;8.27;;
23280;SDS011;11809;56.390;-3.266;2022-11-15T01:49:27;10.63;;;7.93;;
23280;SDS011;11809;56.390;-3.266;2022-11-15T01:54:27;9.90;;;7.78;;
23280;SDS011;11809;56.390;-3.266;2022-11-15T01:56:56;10.82;;;7.97;;
23280;SDS011;11809;56.390;-3.266;2022-11-15T01:59:30;9.23;;;7.30;;
23280;SDS011;11809;56.390;-3.266;2022-11-15T02:01:57;9.85;;;7.78;;
23280;SDS011;11809;56.390;-3.266;2022-11-15T02:06:55;16.90;;;7.63;;
23280;SDS011;11809;56.390;-3.266;2022-11-15T02:09:22;22.17;;;7.45;;
23280;SDS011;11809;56.390;-3.266;2022-11-15T02:11:49;9.35;;;7.05;;
23280;SDS011;11809;56.390;-3.266;2022-11-15T02:14:20;8.37;;;7.17;;
23280;SDS011;11809;56.390;-3.266;2022-11-15T02:16:51;8.63;;;6.65;;
23280;SDS011;11809;56.390;-3.266;2022-11-15T02:21:51;8.45;;;7.07;;
23280;SDS011;11809;56.390;-3.266;2022-11-15T02:27:08;7.95;;;6.38;;
23280;SDS011;11809;56.390;-3.266;2022-11-15T02:32:48;7.50;;;6.35;;
23280;SDS011;11809;56.390;-3.266;2022-11-15T02:35:43;7.53;;;6.15;;
23280;SDS011;11809;56.390;-3.266;2022-11-15T02:49:35;7.18;;;5.93;;
23280;SDS011;11809;56.390;-3.266;2022-11-15T02:52:04;6.38;;;5.53;;
23280;SDS011;11809;56.390;-3.266;2022-11-15T02:54:31;6.28;;;5.68;;
23280;SDS011;11809;56.390;-3.266;2022-11-15T02:57:07;8.93;;;6.00;;
23280;SDS011;11809;56.390;-3.266;2022-11-15T03:04:56;6.45;;;5.18;;
23280;SDS011;11809;56.390;-3.266;2022-11-15T03:10:05;6.18;;;5.45;;
23280;SDS011;11809;56.390;-3.266;2022-11-15T03:15:20;5.80;;;5.30;;
23280;SDS011;11809;56.390;-3.266;2022-11-15T03:17:55;5.65;;;5.10;;
23280;SDS011;11809;56.390;-3.266;2022-11-15T03:20:31;6.30;;;5.53;;
23280;SDS011;11809;56.390;-3.266;2022-11-15T03:23:08;5.40;;;4.90;;
23280;SDS011;11809;56.390;-3.266;2022-11-15T03:25:38;6.38;;;5.47;;
23280;SDS011;11809;56.390;-3.266;2022-11-15T03:28:10;6.82;;;4.97;;
23280;SDS011;11809;56.390;-3.266;2022-11-15T03:30:42;5.20;;;4.70;;
23280;SDS011;11809;56.390;-3.266;2022-11-15T03:33:10;6.70;;;4.78;;
23280;SDS011;11809;56.390;-3.266;2022-11-15T03:35:39;5.65;;;4.90;;
23280;SDS011;11809;56.390;-3.266;2022-11-15T03:38:22;6.43;;;5.00;;
23280;SDS011;11809;56.390;-3.266;2022-11-15T03:46:33;5.63;;;5.03;;
23280;SDS011;11809;56.390;-3.266;2022-11-15T03:49:16;5.82;;;5.15;;
23280;SDS011;11809;56.390;-3.266;2022-11-15T03:51:51;6.20;;;5.45;;
23280;SDS011;11809;56.390;-3.266;2022-11-15T03:54:18;5.63;;;4.80;;
23280;SDS011;11809;56.390;-3.266;2022-11-15T03:56:45;7.53;;;5.85;;
23280;SDS011;11809;56.390;-3.266;2022-11-15T03:59:11;6.43;;;5.72;;
23280;SDS011;11809;56.390;-3.266;2022-11-15T04:01:38;6.63;;;5.53;;
23280;SDS011;11809;56.390;-3.266;2022-11-15T04:04:05;5.95;;;5.35;;
23280;SDS011;11809;56.390;-3.266;2022-11-15T04:06:33;6.10;;;5.45;;
23280;SDS011;11809;56.390;-3.266;2022-11-15T04:09:00;6.20;;;5.32;;
23280;SDS011;11809;56.390;-3.266;2022-11-15T04:11:27;6.20;;;5.55;;
23280;SDS011;11809;56.390;-3.266;2022-11-15T04:13:54;5.43;;;4.93;;
23280;SDS011;11809;56.390;-3.266;2022-11-15T04:16:21;5.88;;;5.28;;
23280;SDS011;11809;56.390;-3.266;2022-11-15T04:18:47;6.00;;;4.97;;
23280;SDS011;11809;56.390;-3.266;2022-11-15T04:21:34;7.40;;;5.25;;
23280;SDS011;11809;56.390;-3.266;2022-11-15T04:24:20;6.32;;;4.78;;
23280;SDS011;11809;56.390;-3.266;2022-11-15T04:26:46;5.57;;;5.05;;
23280;SDS011;11809;56.390;-3.266;2022-11-15T04:29:13;6.00;;;5.40;;
23280;SDS011;11809;56.390;-3.266;2022-11-15T04:32:09;6.55;;;5.55;;
23280;SDS011;11809;56.390;-3.266;2022-11-15T04:34:36;6.18;;;5.32;;
23280;SDS011;11809;56.390;-3.266;2022-11-15T04:37:04;6.57;;;5.53;;
23280;SDS011;11809;56.390;-3.266;2022-11-15T04:39:40;6.07;;;5.22;;
23280;SDS011;11809;56.390;-3.266;2022-11-15T04:42:09;6.25;;;5.53;;
23280;SDS011;11809;56.390;-3.266;2022-11-15T04:44:36;5.75;;;4.93;;
23280;SDS011;11809;56.390;-3.266;2022-11-15T04:47:03;5.70;;;5.05;;
23280;SDS011;11809;56.390;-3.266;2022-11-15T04:49:30;6.05;;;5.05;;
23280;SDS011;11809;56.390;-3.266;2022-11-15T04:51:57;5.63;;;4.88;;
23280;SDS011;11809;56.390;-3.266;2022-11-15T04:54:24;6.35;;;5.35;;
23280;SDS011;11809;56.390;-3.266;2022-11-15T04:56:51;5.65;;;5.10;;
23280;SDS011;11809;56.390;-3.266;2022-11-15T04:59:18;6.32;;;4.88;;
23280;SDS011;11809;56.390;-3.266;2022-11-15T05:01:45;5.05;;;4.22;;
23280;SDS011;11809;56.390;-3.266;2022-11-15T05:04:12;5.88;;;5.20;;
23280;SDS011;11809;56.390;-3.266;2022-11-15T05:06:48;6.13;;;5.13;;
23280;SDS011;11809;56.390;-3.266;2022-11-15T05:09:18;5.68;;;4.90;;
23280;SDS011;11809;56.390;-3.266;2022-11-15T05:11:46;5.47;;;4.75;;
23280;SDS011;11809;56.390;-3.266;2022-11-15T05:14:13;5.13;;;4.43;;
23280;SDS011;11809;56.390;-3.266;2022-11-15T05:16:41;5.43;;;4.75;;
23280;SDS011;11809;56.390;-3.266;2022-11-15T05:19:08;5.50;;;4.93;;
23280;SDS011;11809;56.390;-3.266;2022-11-15T05:21:35;5.60;;;4.78;;
23280;SDS011;11809;56.390;-3.266;2022-11-15T05:24:02;5.13;;;4.63;;
23280;SDS011;11809;56.390;-3.266;2022-11-15T05:26:30;5.63;;;4.55;;
23280;SDS011;11809;56.390;-3.266;2022-11-15T05:28:57;5.03;;;4.43;;
23280;SDS011;11809;56.390;-3.266;2022-11-15T05:31:26;5.45;;;4.65;;
23280;SDS011;11809;56.390;-3.266;2022-11-15T05:33:53;4.70;;;4.20;;
23280;SDS011;11809;56.390;-3.266;2022-11-15T05:36:34;5.20;;;4.43;;
23280;SDS011;11809;56.390;-3.266;2022-11-15T05:39:05;5.85;;;4.43;;
23280;SDS011;11809;56.390;-3.266;2022-11-15T05:41:39;5.70;;;4.67;;
23280;SDS011;11809;56.390;-3.266;2022-11-15T05:44:20;5.70;;;4.90;;
23280;SDS011;11809;56.390;-3.266;2022-11-15T05:46:49;5.03;;;4.43;;
23280;SDS011;11809;56.390;-3.266;2022-11-15T05:51:48;5.43;;;4.40;;
23280;SDS011;11809;56.390;-3.266;2022-11-15T05:54:16;4.68;;;3.80;;
23280;SDS011;11809;56.390;-3.266;2022-11-15T05:56:45;6.32;;;3.97;;
23280;SDS011;11809;56.390;-3.266;2022-11-15T05:59:12;5.88;;;3.58;;
23280;SDS011;11809;56.390;-3.266;2022-11-15T06:01:39;5.28;;;3.72;;
23280;SDS011;11809;56.390;-3.266;2022-11-15T06:04:07;6.53;;;3.47;;
23280;SDS011;11809;56.390;-3.266;2022-11-15T06:06:33;5.75;;;3.80;;
23280;SDS011;11809;56.390;-3.266;2022-11-15T06:09:00;4.43;;;3.80;;
23280;SDS011;11809;56.390;-3.266;2022-11-15T06:11:27;9.38;;;4.20;;
23280;SDS011;11809;56.390;-3.266;2022-11-15T06:13:54;6.22;;;3.63;;
23280;SDS011;11809;56.390;-3.266;2022-11-15T06:16:22;5.47;;;3.65;;
23280;SDS011;11809;56.390;-3.266;2022-11-15T06:18:49;5.05;;;3.53;;
23280;SDS011;11809;56.390;-3.266;2022-11-15T06:21:16;7.90;;;3.72;;
23280;SDS011;11809;56.390;-3.266;2022-11-15T06:23:43;5.75;;;3.70;;
23280;SDS011;11809;56.390;-3.266;2022-11-15T06:26:10;5.07;;;4.25;;
23280;SDS011;11809;56.390;-3.266;2022-11-15T06:28:37;5.57;;;3.53;;
23280;SDS011;11809;56.390;-3.266;2022-11-15T06:31:05;5.38;;;3.20;;
23280;SDS011;11809;56.390;-3.266;2022-11-15T06:33:34;8.52;;;4.30;;
23280;SDS011;11809;56.390;-3.266;2022-11-15T06:36:05;5.03;;;3.65;;
23280;SDS011;11809;56.390;-3.266;2022-11-15T06:38:39;11.82;;;6.20;;
23280;SDS011;11809;56.390;-3.266;2022-11-15T06:41:07;6.45;;;4.50;;
23280;SDS011;11809;56.390;-3.266;2022-11-15T06:43:35;5.72;;;4.05;;
23280;SDS011;11809;56.390;-3.266;2022-11-15T06:46:04;7.15;;;3.70;;
23280;SDS011;11809;56.390;-3.266;2022-11-15T06:48:32;4.65;;;3.95;;
23280;SDS011;11809;56.390;-3.266;2022-11-15T06:51:00;6.70;;;3.92;;
23280;SDS011;11809;56.390;-3.266;2022-11-15T06:53:29;5.53;;;3.90;;
23280;SDS011;11809;56.390;-3.266;2022-11-15T06:56:00;5.32;;;3.83;;
23280;SDS011;11809;56.390;-3.266;2022-11-15T06:58:29;4.90;;;3.15;;
23280;SDS011;11809;56.390;-3.266;2022-11-15T07:01:14;4.18;;;3.45;;
23280;SDS011;11809;56.390;-3.266;2022-11-15T07:03:41;3.78;;;3.28;;
23280;SDS011;11809;56.390;-3.266;2022-11-15T07:06:09;5.25;;;4.18;;
23280;SDS011;11809;56.390;-3.266;2022-11-15T07:08:37;4.50;;;3.60;;
23280;SDS011;11809;56.390;-3.266;2022-11-15T07:11:05;5.15;;;3.60;;
23280;SDS011;11809;56.390;-3.266;2022-11-15T07:13:34;4.68;;;3.47;;
23280;SDS011;11809;56.390;-3.266;2022-11-15T07:16:03;4.03;;;3.60;;
23280;SDS011;11809;56.390;-3.266;2022-11-15T07:18:35;5.00;;;3.25;;
23280;SDS011;11809;56.390;-3.266;2022-11-15T07:21:07;7.93;;;3.67;;
23280;SDS011;11809;56.390;-3.266;2022-11-15T07:23:36;7.97;;;3.60;;
23280;SDS011;11809;56.390;-3.266;2022-11-15T07:26:07;9.00;;;4.95;;
23280;SDS011;11809;56.390;-3.266;2022-11-15T07:28:35;7.43;;;4.85;;
23280;SDS011;11809;56.390;-3.266;2022-11-15T07:31:03;9.38;;;4.35;;
23280;SDS011;11809;56.390;-3.266;2022-11-15T07:33:30;6.72;;;3.50;;
23280;SDS011;11809;56.390;-3.266;2022-11-15T07:36:02;3.97;;;3.50;;
23280;SDS011;11809;56.390;-3.266;2022-11-15T07:38:32;6.65;;;3.40;;
23280;SDS011;11809;56.390;-3.266;2022-11-15T07:41:07;10.05;;;3.70;;
23280;SDS011;11809;56.390;-3.266;2022-11-15T07:43:34;6.03;;;3.78;;
23280;SDS011;11809;56.390;-3.266;2022-11-15T07:46:05;6.80;;;3.42;;
23280;SDS011;11809;56.390;-3.266;2022-11-15T07:48:36;5.38;;;3.50;;
23280;SDS011;11809;56.390;-3.266;2022-11-15T07:51:13;6.60;;;2.75;;
23280;SDS011;11809;56.390;-3.266;2022-11-15T07:53:42;6.18;;;3.40;;
23280;SDS011;11809;56.390;-3.266;2022-11-15T07:56:10;3.58;;;3.00;;
23280;SDS011;11809;56.390;-3.266;2022-11-15T07:58:38;4.63;;;2.90;;
23280;SDS011;11809;56.390;-3.266;2022-11-15T08:01:05;6.53;;;3.13;;
23280;SDS011;11809;56.390;-3.266;2022-11-15T08:03:34;6.32;;;2.65;;
23280;SDS011;11809;56.390;-3.266;2022-11-15T08:06:02;4.30;;;3.00;;
23280;SDS011;11809;56.390;-3.266;2022-11-15T08:08:29;3.50;;;2.92;;
23280;SDS011;11809;56.390;-3.266;2022-11-15T08:10:59;6.65;;;3.00;;
23280;SDS011;11809;56.390;-3.266;2022-11-15T08:13:27;3.25;;;2.63;;
23280;SDS011;11809;56.390;-3.266;2022-11-15T08:15:58;4.05;;;3.10;;
23280;SDS011;11809;56.390;-3.266;2022-11-15T08:18:26;3.70;;;2.80;;
23280;SDS011;11809;56.390;-3.266;2022-11-15T08:20:57;7.05;;;2.80;;
23280;SDS011;11809;56.390;-3.266;2022-11-15T08:23:26;4.35;;;3.10;;
23280;SDS011;11809;56.390;-3.266;2022-11-15T08:25:58;5.05;;;2.90;;
23280;SDS011;11809;56.390;-3.266;2022-11-15T08:28:26;3.90;;;2.90;;
23280;SDS011;11809;56.390;-3.266;2022-11-15T08:30:53;6.85;;;3.38;;
23280;SDS011;11809;56.390;-3.266;2022-11-15T08:33:20;5.53;;;3.05;;
23280;SDS011;11809;56.390;-3.266;2022-11-15T08:35:47;4.78;;;3.35;;
23280;SDS011;11809;56.390;-3.266;2022-11-15T08:38:15;4.95;;;3.20;;
23280;SDS011;11809;56.390;-3.266;2022-11-15T08:40:42;6.35;;;3.50;;
23280;SDS011;11809;56.390;-3.266;2022-11-15T08:43:09;5.47;;;3.22;;
23280;SDS011;11809;56.390;-3.266;2022-11-15T08:45:36;5.15;;;3.53;;
23280;SDS011;11809;56.390;-3.266;2022-11-15T08:48:06;7.47;;;3.25;;
23280;SDS011;11809;56.390;-3.266;2022-11-15T08:50:33;5.47;;;3.70;;
23280;SDS011;11809;56.390;-3.266;2022-11-15T08:53:06;7.82;;;3.53;;
23280;SDS011;11809;56.390;-3.266;2022-11-15T08:55:38;6.28;;;3.80;;
23280;SDS011;11809;56.390;-3.266;2022-11-15T08:58:06;3.92;;;3.20;;
23280;SDS011;11809;56.390;-3.266;2022-11-15T09:00:33;4.05;;;3.10;;
23280;SDS011;11809;56.390;-3.266;2022-11-15T09:03:03;4.75;;;3.55;;
23280;SDS011;11809;56.390;-3.266;2022-11-15T09:05:31;7.72;;;4.20;;
23280;SDS011;11809;56.390;-3.266;2022-11-15T09:07:58;4.68;;;3.38;;
23280;SDS011;11809;56.390;-3.266;2022-11-15T09:10:27;5.47;;;3.95;;
23280;SDS011;11809;56.390;-3.266;2022-11-15T09:12:56;7.32;;;3.70;;
23280;SDS011;11809;56.390;-3.266;2022-11-15T09:15:24;5.43;;;3.92;;
23280;SDS011;11809;56.390;-3.266;2022-11-15T09:17:51;4.15;;;3.67;;
23280;SDS011;11809;56.390;-3.266;2022-11-15T09:20:19;4.30;;;3.38;;
23280;SDS011;11809;56.390;-3.266;2022-11-15T09:22:45;5.55;;;3.80;;
23280;SDS011;11809;56.390;-3.266;2022-11-15T09:25:12;6.15;;;3.67;;
23280;SDS011;11809;56.390;-3.266;2022-11-15T09:27:40;4.72;;;3.25;;
23280;SDS011;11809;56.390;-3.266;2022-11-15T09:30:07;5.22;;;3.70;;
23280;SDS011;11809;56.390;-3.266;2022-11-15T09:32:34;7.22;;;4.10;;
23280;SDS011;11809;56.390;-3.266;2022-11-15T09:35:04;12.70;;;3.85;;
23280;SDS011;11809;56.390;-3.266;2022-11-15T09:37:32;4.20;;;3.80;;
23280;SDS011;11809;56.390;-3.266;2022-11-15T09:40:02;7.60;;;4.00;;
23280;SDS011;11809;56.390;-3.266;2022-11-15T09:42:42;6.63;;;3.80;;
23280;SDS011;11809;56.390;-3.266;2022-11-15T09:48:21;11.20;;;3.95;;
23280;SDS011;11809;56.390;-3.266;2022-11-15T09:50:58;5.43;;;3.30;;
23280;SDS011;11809;56.390;-3.266;2022-11-15T09:53:35;6.22;;;3.45;;
23280;SDS011;11809;56.390;-3.266;2022-11-15T09:56:36;5.85;;;3.38;;
23280;SDS011;11809;56.390;-3.266;2022-11-15T10:04:35;5.40;;;2.92;;
23280;SDS011;11809;56.390;-3.266;2022-11-15T10:10:34;3.60;;;2.75;;
23280;SDS011;11809;56.390;-3.266;2022-11-15T10:13:04;4.57;;;3.05;;
23280;SDS011;11809;56.390;-3.266;2022-11-15T10:15:39;6.50;;;3.40;;
23280;SDS011;11809;56.390;-3.266;2022-11-15T10:18:16;5.90;;;2.90;;
23280;SDS011;11809;56.390;-3.266;2022-11-15T10:20:49;5.38;;;3.08;;
23280;SDS011;11809;56.390;-3.266;2022-11-15T10:23:19;3.78;;;2.60;;
23280;SDS011;11809;56.390;-3.266;2022-11-15T10:25:51;6.38;;;2.90;;
23280;SDS011;11809;56.390;-3.266;2022-11-15T10:30:54;7.43;;;3.03;;
23280;SDS011;11809;56.390;-3.266;2022-11-15T10:39:13;4.55;;;2.42;;
23280;SDS011;11809;56.390;-3.266;2022-11-15T10:41:41;5.28;;;2.70;;
23280;SDS011;11809;56.390;-3.266;2022-11-15T10:44:25;6.47;;;2.85;;
23280;SDS011;11809;56.390;-3.266;2022-11-15T10:49:23;6.10;;;2.80;;
23280;SDS011;11809;56.390;-3.266;2022-11-15T10:52:21;8.68;;;2.85;;
23280;SDS011;11809;56.390;-3.266;2022-11-15T10:55:34;4.68;;;2.88;;
23280;SDS011;11809;56.390;-3.266;2022-11-15T10:57:38;5.00;;;2.92;;
23280;SDS011;11809;56.390;-3.266;2022-11-15T11:00:25;6.43;;;2.42;;
23280;SDS011;11809;56.390;-3.266;2022-11-15T11:07:59;3.75;;;2.22;;
23280;SDS011;11809;56.390;-3.266;2022-11-15T11:13:39;4.93;;;2.42;;
23280;SDS011;11809;56.390;-3.266;2022-11-15T11:32:56;5.95;;;2.45;;
23280;SDS011;11809;56.390;-3.266;2022-11-15T11:35:34;3.75;;;2.17;;
23280;SDS011;11809;56.390;-3.266;2022-11-15T11:38:46;3.13;;;2.00;;
23280;SDS011;11809;56.390;-3.266;2022-11-15T11:47:14;4.15;;;2.00;;
23280;SDS011;11809;56.390;-3.266;2022-11-15T11:50:29;7.65;;;1.95;;
23280;SDS011;11809;56.390;-3.266;2022-11-15T11:55:31;4.97;;;2.10;;
23280;SDS011;11809;56.390;-3.266;2022-11-15T12:01:18;6.55;;;2.30;;
23280;SDS011;11809;56.390;-3.266;2022-11-15T12:04:00;7.50;;;2.30;;
23280;SDS011;11809;56.390;-3.266;2022-11-15T12:06:33;8.15;;;2.22;;
23280;SDS011;11809;56.390;-3.266;2022-11-15T12:09:12;9.93;;;2.28;;
23280;SDS011;11809;56.390;-3.266;2022-11-15T12:14:48;3.90;;;1.70;;
23280;SDS011;11809;56.390;-3.266;2022-11-15T12:17:21;9.02;;;2.20;;
23280;SDS011;11809;56.390;-3.266;2022-11-15T12:19:51;5.05;;;1.90;;
23280;SDS011;11809;56.390;-3.266;2022-11-15T12:22:24;2.88;;;1.60;;
23280;SDS011;11809;56.390;-3.266;2022-11-15T12:25:05;4.97;;;1.83;;
23280;SDS011;11809;56.390;-3.266;2022-11-15T12:27:38;4.78;;;1.38;;
23280;SDS011;11809;56.390;-3.266;2022-11-15T12:30:11;3.70;;;1.70;;
23280;SDS011;11809;56.390;-3.266;2022-11-15T12:32:52;3.17;;;1.38;;
23280;SDS011;11809;56.390;-3.266;2022-11-15T12:40:32;3.75;;;1.27;;
23280;SDS011;11809;56.390;-3.266;2022-11-15T12:45:34;2.92;;;1.30;;
23280;SDS011;11809;56.390;-3.266;2022-11-15T13:06:47;2.53;;;1.08;;
23280;SDS011;11809;56.390;-3.266;2022-11-15T13:20:30;1.40;;;0.85;;
23280;SDS011;11809;56.390;-3.266;2022-11-15T13:28:09;1.55;;;0.70;;
23280;SDS011;11809;56.390;-3.266;2022-11-15T13:35:52;1.05;;;0.57;;
23280;SDS011;11809;56.390;-3.266;2022-11-15T13:38:26;1.25;;;0.60;;
23280;SDS011;11809;56.390;-3.266;2022-11-15T13:40:56;1.77;;;0.70;;
23280;SDS011;11809;56.390;-3.266;2022-11-15T13:46:05;1.10;;;0.65;;
23280;SDS011;11809;56.390;-3.266;2022-11-15T13:49:04;1.25;;;0.70;;
23280;SDS011;11809;56.390;-3.266;2022-11-15T13:54:24;0.85;;;0.50;;
23280;SDS011;11809;56.390;-3.266;2022-11-15T13:57:24;0.80;;;0.50;;
23280;SDS011;11809;56.390;-3.266;2022-11-15T14:00:03;3.15;;;0.50;;
23280;SDS011;11809;56.390;-3.266;2022-11-15T14:02:33;1.55;;;0.68;;
23280;SDS011;11809;56.390;-3.266;2022-11-15T14:10:46;0.98;;;0.40;;
23280;SDS011;11809;56.390;-3.266;2022-11-15T14:13:29;5.47;;;0.60;;
23280;SDS011;11809;56.390;-3.266;2022-11-15T14:18:47;3.30;;;0.57;;
23280;SDS011;11809;56.390;-3.266;2022-11-15T14:21:17;1.35;;;0.40;;
23280;SDS011;11809;56.390;-3.266;2022-11-15T14:23:45;1.90;;;0.50;;
23280;SDS011;11809;56.390;-3.266;2022-11-15T14:26:26;2.22;;;0.50;;
23280;SDS011;11809;56.390;-3.266;2022-11-15T14:28:55;1.38;;;0.45;;
23280;SDS011;11809;56.390;-3.266;2022-11-15T14:31:22;2.25;;;0.60;;
23280;SDS011;11809;56.390;-3.266;2022-11-15T14:33:49;2.65;;;0.60;;
23280;SDS011;11809;56.390;-3.266;2022-11-15T14:36:18;4.07;;;0.60;;
23280;SDS011;11809;56.390;-3.266;2022-11-15T14:38:46;4.40;;;0.40;;
23280;SDS011;11809;56.390;-3.266;2022-11-15T14:41:21;3.22;;;0.55;;
23280;SDS011;11809;56.390;-3.266;2022-11-15T14:43:50;1.88;;;0.60;;
23280;SDS011;11809;56.390;-3.266;2022-11-15T14:46:18;3.30;;;0.60;;
23280;SDS011;11809;56.390;-3.266;2022-11-15T14:48:45;3.05;;;0.63;;
23280;SDS011;11809;56.390;-3.266;2022-11-15T14:51:13;5.78;;;1.15;;
23280;SDS011;11809;56.390;-3.266;2022-11-15T14:53:43;2.20;;;0.63;;
23280;SDS011;11809;56.390;-3.266;2022-11-15T14:56:12;1.40;;;0.40;;
23280;SDS011;11809;56.390;-3.266;2022-11-15T14:58:39;0.77;;;0.50;;
23280;SDS011;11809;56.390;-3.266;2022-11-15T15:01:14;0.40;;;0.30;;
23280;SDS011;11809;56.390;-3.266;2022-11-15T15:03:52;1.92;;;0.40;;
23280;SDS011;11809;56.390;-3.266;2022-11-15T15:06:26;1.08;;;0.35;;
23280;SDS011;11809;56.390;-3.266;2022-11-15T15:08:53;1.15;;;0.30;;
23280;SDS011;11809;56.390;-3.266;2022-11-15T15:11:21;0.65;;;0.40;;
23280;SDS011;11809;56.390;-3.266;2022-11-15T15:13:51;0.40;;;0.38;;
23280;SDS011;11809;56.390;-3.266;2022-11-15T15:16:19;0.65;;;0.50;;
23280;SDS011;11809;56.390;-3.266;2022-11-15T15:18:46;1.15;;;0.30;;
23280;SDS011;11809;56.390;-3.266;2022-11-15T15:21:24;0.63;;;0.30;;
23280;SDS011;11809;56.390;-3.266;2022-11-15T15:24:01;13.98;;;2.53;;
23280;SDS011;11809;56.390;-3.266;2022-11-15T15:26:29;11.77;;;2.67;;
23280;SDS011;11809;56.390;-3.266;2022-11-15T15:29:00;2.83;;;1.10;;
23280;SDS011;11809;56.390;-3.266;2022-11-15T15:31:27;4.85;;;0.88;;
23280;SDS011;11809;56.390;-3.266;2022-11-15T15:33:54;1.85;;;0.75;;
23280;SDS011;11809;56.390;-3.266;2022-11-15T15:36:21;3.90;;;0.90;;
23280;SDS011;11809;56.390;-3.266;2022-11-15T15:38:48;4.50;;;1.50;;
23280;SDS011;11809;56.390;-3.266;2022-11-15T15:41:16;4.78;;;1.55;;
23280;SDS011;11809;56.390;-3.266;2022-11-15T15:43:43;1.90;;;1.10;;
23280;SDS011;11809;56.390;-3.266;2022-11-15T15:46:12;5.53;;;1.88;;
23280;SDS011;11809;56.390;-3.266;2022-11-15T15:48:42;2.78;;;1.80;;
23280;SDS011;11809;56.390;-3.266;2022-11-15T15:51:10;2.03;;;1.38;;
23280;SDS011;11809;56.390;-3.266;2022-11-15T15:53:45;2.10;;;1.40;;
23280;SDS011;11809;56.390;-3.266;2022-11-15T15:56:15;2.53;;;1.23;;
23280;SDS011;11809;56.390;-3.266;2022-11-15T15:58:42;3.08;;;0.93;;
23280;SDS011;11809;56.390;-3.266;2022-11-15T16:01:09;2.97;;;1.20;;
23280;SDS011;11809;56.390;-3.266;2022-11-15T16:03:37;3.13;;;1.40;;
23280;SDS011;11809;56.390;-3.266;2022-11-15T16:06:04;2.63;;;1.35;;
23280;SDS011;11809;56.390;-3.266;2022-11-15T16:08:32;1.88;;;1.13;;
23280;SDS011;11809;56.390;-3.266;2022-11-15T16:11:19;8.07;;;1.65;;
23280;SDS011;11809;56.390;-3.266;2022-11-15T16:13:46;3.25;;;1.20;;
23280;SDS011;11809;56.390;-3.266;2022-11-15T16:16:13;1.77;;;1.20;;
23280;SDS011;11809;56.390;-3.266;2022-11-15T16:18:40;2.15;;;1.20;;
23280;SDS011;11809;56.390;-3.266;2022-11-15T16:21:08;3.58;;;1.55;;
23280;SDS011;11809;56.390;-3.266;2022-11-15T16:23:35;16.67;;;1.58;;
23280;SDS011;11809;56.390;-3.266;2022-11-15T16:26:19;2.35;;;1.30;;
23280;SDS011;11809;56.390;-3.266;2022-11-15T16:28:50;2.40;;;1.00;;
23280;SDS011;11809;56.390;-3.266;2022-11-15T16:31:18;4.07;;;1.15;;
23280;SDS011;11809;56.390;-3.266;2022-11-15T16:33:47;1.50;;;1.00;;
23280;SDS011;11809;56.390;-3.266;2022-11-15T16:36:22;2.50;;;0.90;;
23280;SDS011;11809;56.390;-3.266;2022-11-15T16:38:57;3.03;;;1.20;;
23280;SDS011;11809;56.390;-3.266;2022-11-15T16:41:26;1.50;;;1.05;;
23280;SDS011;11809;56.390;-3.266;2022-11-15T16:43:54;1.45;;;0.93;;
23280;SDS011;11809;56.390;-3.266;2022-11-15T16:46:22;1.20;;;1.00;;
23280;SDS011;11809;56.390;-3.266;2022-11-15T16:48:52;1.35;;;0.80;;
23280;SDS011;11809;56.390;-3.266;2022-11-15T16:51:20;2.88;;;1.30;;
23280;SDS011;11809;56.390;-3.266;2022-11-15T16:53:48;2.17;;;0.80;;
23280;SDS011;11809;56.390;-3.266;2022-11-15T16:58:57;1.40;;;0.90;;
23280;SDS011;11809;56.390;-3.266;2022-11-15T17:04:12;5.13;;;1.00;;
23280;SDS011;11809;56.390;-3.266;2022-11-15T17:06:40;1.65;;;0.80;;
23280;SDS011;11809;56.390;-3.266;2022-11-15T17:09:10;1.50;;;0.70;;
23280;SDS011;11809;56.390;-3.266;2022-11-15T17:11:51;4.28;;;1.15;;
23280;SDS011;11809;56.390;-3.266;2022-11-15T17:14:19;5.43;;;1.05;;
23280;SDS011;11809;56.390;-3.266;2022-11-15T17:16:47;2.45;;;0.82;;
23280;SDS011;11809;56.390;-3.266;2022-11-15T17:19:18;9.95;;;4.32;;
23280;SDS011;11809;56.390;-3.266;2022-11-15T17:21:47;12.80;;;5.47;;
23280;SDS011;11809;56.390;-3.266;2022-11-15T17:24:17;10.80;;;4.13;;
23280;SDS011;11809;56.390;-3.266;2022-11-15T17:26:46;9.57;;;4.00;;
23280;SDS011;11809;56.390;-3.266;2022-11-15T17:29:14;8.32;;;3.60;;
23280;SDS011;11809;56.390;-3.266;2022-11-15T17:31:41;7.75;;;3.60;;
23280;SDS011;11809;56.390;-3.266;2022-11-15T17:34:10;8.02;;;3.08;;
23280;SDS011;11809;56.390;-3.266;2022-11-15T17:36:38;6.32;;;3.03;;
23280;SDS011;11809;56.390;-3.266;2022-11-15T17:39:05;6.22;;;2.80;;
23280;SDS011;11809;56.390;-3.266;2022-11-15T17:41:33;13.73;;;2.53;;
23280;SDS011;11809;56.390;-3.266;2022-11-15T17:44:00;12.80;;;2.58;;
23280;SDS011;11809;56.390;-3.266;2022-11-15T17:46:30;7.57;;;2.45;;